sensor_id;sensor_type;location;lat;lon;timestamp;temperature;humidity
74513;DHT22;62992;52.052;8.550;2022-10-22T00:00:17;13.70;99.90
74513;DHT22;62992;52.052;8.550;2022-10-22T00:02:43;13.60;99.90
74513;DHT22;62992;52.052;8.550;2022-10-22T00:05:09;13.60;99.90
74513;DHT22;62992;52.052;8.550;2022-10-22T00:07:34;13.50;99.90
74513;DHT22;62992;52.052;8.550;2022-10-22T00:10:00;13.50;99.90
74513;DHT22;62992;52.052;8.550;2022-10-22T00:12:26;13.40;99.90
74513;DHT22;62992;52.052;8.550;2022-10-22T00:14:52;13.50;99.90
74513;DHT22;62992;52.052;8.550;2022-10-22T00:17:18;13.40;99.90
74513;DHT22;62992;52.052;8.550;2022-10-22T00:19:44;13.30;99.90
74513;DHT22;62992;52.052;8.550;2022-10-22T00:22:10;13.30;99.90
74513;DHT22;62992;52.052;8.550;2022-10-22T00:24:37;13.40;99.90
74513;DHT22;62992;52.052;8.550;2022-10-22T00:27:03;13.50;99.90
74513;DHT22;62992;52.052;8.550;2022-10-22T00:29:29;13.60;99.90
74513;DHT22;62992;52.052;8.550;2022-10-22T00:31:55;13.70;99.90
74513;DHT22;62992;52.052;8.550;2022-10-22T00:34:21;13.80;99.90
74513;DHT22;62992;52.052;8.550;2022-10-22T00:36:48;13.80;99.90
74513;DHT22;62992;52.052;8.550;2022-10-22T00:39:16;13.80;99.90
74513;DHT22;62992;52.052;8.550;2022-10-22T00:41:43;13.70;99.90
74513;DHT22;62992;52.052;8.550;2022-10-22T00:47:13;13.90;99.90
74513;DHT22;62992;52.052;8.550;2022-10-22T00:49:39;13.80;99.90
74513;DHT22;62992;52.052;8.550;2022-10-22T00:52:06;13.80;99.90
74513;DHT22;62992;52.052;8.550;2022-10-22T00:54:32;13.70;99.90
74513;DHT22;62992;52.052;8.550;2022-10-22T00:56:58;13.70;99.90
74513;DHT22;62992;52.052;8.550;2022-10-22T00:59:24;13.70;99.90
74513;DHT22;62992;52.052;8.550;2022-10-22T01:01:50;13.80;99.90
74513;DHT22;62992;52.052;8.550;2022-10-22T01:04:17;13.80;99.90
74513;DHT22;62992;52.052;8.550;2022-10-22T01:06:43;13.80;99.90
74513;DHT22;62992;52.052;8.550;2022-10-22T01:11:58;13.90;99.90
74513;DHT22;62992;52.052;8.550;2022-10-22T01:17:22;13.90;99.90
74513;DHT22;62992;52.052;8.550;2022-10-22T01:20:11;13.80;99.90
74513;DHT22;62992;52.052;8.550;2022-10-22T01:25:37;13.70;99.90
74513;DHT22;62992;52.052;8.550;2022-10-22T01:28:22;13.90;99.90
74513;DHT22;62992;52.052;8.550;2022-10-22T01:30:55;13.80;99.90
74513;DHT22;62992;52.052;8.550;2022-10-22T01:33:23;13.80;99.90
74513;DHT22;62992;52.052;8.550;2022-10-22T01:35:49;13.80;99.90
74513;DHT22;62992;52.052;8.550;2022-10-22T01:38:19;13.80;99.90
74513;DHT22;62992;52.052;8.550;2022-10-22T01:40:46;13.90;99.90
74513;DHT22;62992;52.052;8.550;2022-10-22T01:43:12;13.90;99.90
74513;DHT22;62992;52.052;8.550;2022-10-22T01:45:45;13.90;99.90
74513;DHT22;62992;52.052;8.550;2022-10-22T02:02:39;13.90;99.90
74513;DHT22;62992;52.052;8.550;2022-10-22T02:05:26;13.80;99.90
74513;DHT22;62992;52.052;8.550;2022-10-22T02:07:59;13.80;99.90
74513;DHT22;62992;52.052;8.550;2022-10-22T02:10:26;13.80;99.90
74513;DHT22;62992;52.052;8.550;2022-10-22T02:12:55;13.70;99.90
74513;DHT22;62992;52.052;8.550;2022-10-22T02:15:23;13.60;99.90
74513;DHT22;62992;52.052;8.550;2022-10-22T02:17:51;13.50;99.90
74513;DHT22;62992;52.052;8.550;2022-10-22T02:20:23;13.40;99.90
74513;DHT22;62992;52.052;8.550;2022-10-22T02:22:50;13.30;99.90
74513;DHT22;62992;52.052;8.550;2022-10-22T02:25:16;13.20;99.90
74513;DHT22;62992;52.052;8.550;2022-10-22T02:27:50;13.20;99.90
74513;DHT22;62992;52.052;8.550;2022-10-22T02:30:19;13.10;99.90
74513;DHT22;62992;52.052;8.550;2022-10-22T02:32:56;13.10;99.90
74513;DHT22;62992;52.052;8.550;2022-10-22T02:35:25;13.00;99.90
74513;DHT22;62992;52.052;8.550;2022-10-22T02:37:53;12.90;99.90
74513;DHT22;62992;52.052;8.550;2022-10-22T02:40:20;12.80;99.90
74513;DHT22;62992;52.052;8.550;2022-10-22T02:42:47;12.70;99.90
74513;DHT22;62992;52.052;8.550;2022-10-22T02:45:16;12.70;99.90
74513;DHT22;62992;52.052;8.550;2022-10-22T02:47:43;12.70;99.90
74513;DHT22;62992;52.052;8.550;2022-10-22T02:50:09;12.60;99.90
74513;DHT22;62992;52.052;8.550;2022-10-22T02:52:35;12.50;99.90
74513;DHT22;62992;52.052;8.550;2022-10-22T02:55:00;12.50;99.90
74513;DHT22;62992;52.052;8.550;2022-10-22T02:57:26;12.50;99.90
74513;DHT22;62992;52.052;8.550;2022-10-22T02:59:52;12.40;99.90
74513;DHT22;62992;52.052;8.550;2022-10-22T03:02:17;12.40;99.90
74513;DHT22;62992;52.052;8.550;2022-10-22T03:04:44;12.30;99.90
74513;DHT22;62992;52.052;8.550;2022-10-22T03:07:10;12.30;99.90
74513;DHT22;62992;52.052;8.550;2022-10-22T03:09:35;12.30;99.90
74513;DHT22;62992;52.052;8.550;2022-10-22T03:12:01;12.30;99.90
74513;DHT22;62992;52.052;8.550;2022-10-22T03:14:26;12.30;99.90
74513;DHT22;62992;52.052;8.550;2022-10-22T03:16:52;12.30;99.90
74513;DHT22;62992;52.052;8.550;2022-10-22T03:19:18;12.30;99.90
74513;DHT22;62992;52.052;8.550;2022-10-22T03:21:58;12.20;99.90
74513;DHT22;62992;52.052;8.550;2022-10-22T03:24:28;12.10;99.90
74513;DHT22;62992;52.052;8.550;2022-10-22T03:26:55;12.20;99.90
74513;DHT22;62992;52.052;8.550;2022-10-22T03:29:22;12.20;99.90
74513;DHT22;62992;52.052;8.550;2022-10-22T03:31:50;12.20;99.90
74513;DHT22;62992;52.052;8.550;2022-10-22T03:34:16;12.20;99.90
74513;DHT22;62992;52.052;8.550;2022-10-22T03:36:41;12.20;99.90
74513;DHT22;62992;52.052;8.550;2022-10-22T03:39:08;12.20;99.90
74513;DHT22;62992;52.052;8.550;2022-10-22T03:41:34;12.20;99.90
74513;DHT22;62992;52.052;8.550;2022-10-22T03:44:02;12.20;99.90
74513;DHT22;62992;52.052;8.550;2022-10-22T03:46:28;12.20;99.90
74513;DHT22;62992;52.052;8.550;2022-10-22T03:48:53;12.20;99.90
74513;DHT22;62992;52.052;8.550;2022-10-22T03:51:19;12.20;99.90
74513;DHT22;62992;52.052;8.550;2022-10-22T03:53:45;12.10;99.90
74513;DHT22;62992;52.052;8.550;2022-10-22T03:56:11;12.10;99.90
74513;DHT22;62992;52.052;8.550;2022-10-22T03:58:39;12.10;99.90
74513;DHT22;62992;52.052;8.550;2022-10-22T04:01:10;12.00;99.90
74513;DHT22;62992;52.052;8.550;2022-10-22T04:03:36;12.00;99.90
74513;DHT22;62992;52.052;8.550;2022-10-22T04:06:04;12.00;99.90
74513;DHT22;62992;52.052;8.550;2022-10-22T04:08:33;11.90;99.90
74513;DHT22;62992;52.052;8.550;2022-10-22T04:10:59;11.80;99.90
74513;DHT22;62992;52.052;8.550;2022-10-22T04:13:25;11.90;99.90
74513;DHT22;62992;52.052;8.550;2022-10-22T04:15:51;11.90;99.90
74513;DHT22;62992;52.052;8.550;2022-10-22T04:18:21;11.80;99.90
74513;DHT22;62992;52.052;8.550;2022-10-22T04:20:47;11.70;99.90
74513;DHT22;62992;52.052;8.550;2022-10-22T04:23:15;11.70;99.90
74513;DHT22;62992;52.052;8.550;2022-10-22T04:25:41;11.70;99.90
74513;DHT22;62992;52.052;8.550;2022-10-22T04:28:07;11.60;99.90
74513;DHT22;62992;52.052;8.550;2022-10-22T04:30:33;11.60;99.90
74513;DHT22;62992;52.052;8.550;2022-10-22T04:32:59;11.50;99.90
74513;DHT22;62992;52.052;8.550;2022-10-22T04:35:25;11.60;99.90
74513;DHT22;62992;52.052;8.550;2022-10-22T04:37:50;11.50;99.90
74513;DHT22;62992;52.052;8.550;2022-10-22T04:40:16;11.50;99.90
74513;DHT22;62992;52.052;8.550;2022-10-22T04:42:42;11.60;99.90
74513;DHT22;62992;52.052;8.550;2022-10-22T04:45:08;11.50;99.90
74513;DHT22;62992;52.052;8.550;2022-10-22T04:47:33;11.50;99.90
74513;DHT22;62992;52.052;8.550;2022-10-22T04:49:59;11.40;99.90
74513;DHT22;62992;52.052;8.550;2022-10-22T04:52:24;11.40;99.90
74513;DHT22;62992;52.052;8.550;2022-10-22T04:54:50;11.30;99.90
74513;DHT22;62992;52.052;8.550;2022-10-22T04:57:16;11.30;99.90
74513;DHT22;62992;52.052;8.550;2022-10-22T04:59:41;11.20;99.90
74513;DHT22;62992;52.052;8.550;2022-10-22T05:02:07;11.20;99.90
74513;DHT22;62992;52.052;8.550;2022-10-22T05:04:32;11.20;99.90
74513;DHT22;62992;52.052;8.550;2022-10-22T05:06:58;11.10;99.90
74513;DHT22;62992;52.052;8.550;2022-10-22T05:09:23;11.10;99.90
74513;DHT22;62992;52.052;8.550;2022-10-22T05:11:51;11.10;99.90
74513;DHT22;62992;52.052;8.550;2022-10-22T05:14:19;11.10;99.90
74513;DHT22;62992;52.052;8.550;2022-10-22T05:16:45;11.10;99.90
74513;DHT22;62992;52.052;8.550;2022-10-22T05:19:27;11.10;99.90
74513;DHT22;62992;52.052;8.550;2022-10-22T05:21:58;11.10;99.90
74513;DHT22;62992;52.052;8.550;2022-10-22T05:24:26;11.10;99.90
74513;DHT22;62992;52.052;8.550;2022-10-22T05:26:53;11.10;99.90
74513;DHT22;62992;52.052;8.550;2022-10-22T05:29:19;11.00;99.90
74513;DHT22;62992;52.052;8.550;2022-10-22T05:31:45;10.90;99.90
74513;DHT22;62992;52.052;8.550;2022-10-22T05:34:11;10.90;99.90
74513;DHT22;62992;52.052;8.550;2022-10-22T05:36:37;10.90;99.90
74513;DHT22;62992;52.052;8.550;2022-10-22T05:39:03;10.90;99.90
74513;DHT22;62992;52.052;8.550;2022-10-22T05:41:29;10.80;99.90
74513;DHT22;62992;52.052;8.550;2022-10-22T05:43:57;10.90;99.90
74513;DHT22;62992;52.052;8.550;2022-10-22T05:46:25;10.90;99.90
74513;DHT22;62992;52.052;8.550;2022-10-22T05:48:55;11.00;99.90
74513;DHT22;62992;52.052;8.550;2022-10-22T05:51:22;11.00;99.90
74513;DHT22;62992;52.052;8.550;2022-10-22T05:53:54;11.00;99.90
74513;DHT22;62992;52.052;8.550;2022-10-22T05:56:20;11.10;99.90
74513;DHT22;62992;52.052;8.550;2022-10-22T05:58:47;11.20;99.90
74513;DHT22;62992;52.052;8.550;2022-10-22T06:01:39;11.30;99.90
74513;DHT22;62992;52.052;8.550;2022-10-22T06:04:06;11.30;99.90
74513;DHT22;62992;52.052;8.550;2022-10-22T06:06:41;11.20;99.90
74513;DHT22;62992;52.052;8.550;2022-10-22T06:11:42;11.40;99.90
74513;DHT22;62992;52.052;8.550;2022-10-22T06:14:08;11.40;99.90
74513;DHT22;62992;52.052;8.550;2022-10-22T06:16:34;11.30;99.90
74513;DHT22;62992;52.052;8.550;2022-10-22T06:19:00;11.30;99.90
74513;DHT22;62992;52.052;8.550;2022-10-22T06:21:26;11.30;99.90
74513;DHT22;62992;52.052;8.550;2022-10-22T06:23:55;11.20;99.90
74513;DHT22;62992;52.052;8.550;2022-10-22T06:26:21;11.30;99.90
74513;DHT22;62992;52.052;8.550;2022-10-22T06:28:47;11.20;99.90
74513;DHT22;62992;52.052;8.550;2022-10-22T06:31:12;11.20;99.90
74513;DHT22;62992;52.052;8.550;2022-10-22T06:33:39;11.20;99.90
74513;DHT22;62992;52.052;8.550;2022-10-22T06:36:15;11.20;99.90
74513;DHT22;62992;52.052;8.550;2022-10-22T06:38:41;11.10;99.90
74513;DHT22;62992;52.052;8.550;2022-10-22T06:41:10;11.10;99.90
74513;DHT22;62992;52.052;8.550;2022-10-22T06:43:35;11.10;99.90
74513;DHT22;62992;52.052;8.550;2022-10-22T06:46:03;11.10;99.90
74513;DHT22;62992;52.052;8.550;2022-10-22T06:48:29;11.10;99.90
74513;DHT22;62992;52.052;8.550;2022-10-22T06:50:55;11.20;99.90
74513;DHT22;62992;52.052;8.550;2022-10-22T06:53:21;11.20;99.90
74513;DHT22;62992;52.052;8.550;2022-10-22T06:55:46;11.30;99.90
74513;DHT22;62992;52.052;8.550;2022-10-22T06:58:12;11.30;99.90
74513;DHT22;62992;52.052;8.550;2022-10-22T07:00:37;11.40;99.90
74513;DHT22;62992;52.052;8.550;2022-10-22T07:03:03;11.50;99.90
74513;DHT22;62992;52.052;8.550;2022-10-22T07:05:28;11.50;99.90
74513;DHT22;62992;52.052;8.550;2022-10-22T07:07:54;11.60;99.90
74513;DHT22;62992;52.052;8.550;2022-10-22T07:10:20;11.70;99.90
74513;DHT22;62992;52.052;8.550;2022-10-22T07:12:45;11.90;99.90
74513;DHT22;62992;52.052;8.550;2022-10-22T07:15:11;12.10;99.90
74513;DHT22;62992;52.052;8.550;2022-10-22T07:17:36;12.20;99.90
74513;DHT22;62992;52.052;8.550;2022-10-22T07:20:03;12.20;99.90
74513;DHT22;62992;52.052;8.550;2022-10-22T07:22:31;12.30;99.90
74513;DHT22;62992;52.052;8.550;2022-10-22T07:24:57;12.30;99.90
74513;DHT22;62992;52.052;8.550;2022-10-22T07:27:22;12.40;99.90
74513;DHT22;62992;52.052;8.550;2022-10-22T07:29:48;12.50;99.90
74513;DHT22;62992;52.052;8.550;2022-10-22T07:32:14;12.60;99.90
74513;DHT22;62992;52.052;8.550;2022-10-22T07:34:39;12.70;99.90
74513;DHT22;62992;52.052;8.550;2022-10-22T07:37:05;12.70;99.90
74513;DHT22;62992;52.052;8.550;2022-10-22T07:39:30;13.00;99.90
74513;DHT22;62992;52.052;8.550;2022-10-22T07:41:56;13.50;99.90
74513;DHT22;62992;52.052;8.550;2022-10-22T07:44:22;13.70;99.90
74513;DHT22;62992;52.052;8.550;2022-10-22T07:46:47;14.50;99.90
74513;DHT22;62992;52.052;8.550;2022-10-22T07:49:13;16.10;99.90
74513;DHT22;62992;52.052;8.550;2022-10-22T07:51:38;18.00;99.90
74513;DHT22;62992;52.052;8.550;2022-10-22T07:54:04;18.00;99.90
74513;DHT22;62992;52.052;8.550;2022-10-22T07:56:30;17.70;99.90
74513;DHT22;62992;52.052;8.550;2022-10-22T07:58:55;17.30;99.90
74513;DHT22;62992;52.052;8.550;2022-10-22T08:01:21;20.30;99.90
74513;DHT22;62992;52.052;8.550;2022-10-22T08:03:46;21.80;99.90
74513;DHT22;62992;52.052;8.550;2022-10-22T08:06:13;22.20;99.90
74513;DHT22;62992;52.052;8.550;2022-10-22T08:08:39;22.00;99.90
74513;DHT22;62992;52.052;8.550;2022-10-22T08:11:05;21.80;99.90
74513;DHT22;62992;52.052;8.550;2022-10-22T08:13:31;21.20;99.90
74513;DHT22;62992;52.052;8.550;2022-10-22T08:15:58;21.70;99.90
74513;DHT22;62992;52.052;8.550;2022-10-22T08:18:24;21.00;99.90
74513;DHT22;62992;52.052;8.550;2022-10-22T08:20:51;21.20;99.90
74513;DHT22;62992;52.052;8.550;2022-10-22T08:23:16;22.30;99.90
74513;DHT22;62992;52.052;8.550;2022-10-22T08:25:42;21.20;99.90
74513;DHT22;62992;52.052;8.550;2022-10-22T08:28:08;20.30;99.90
74513;DHT22;62992;52.052;8.550;2022-10-22T08:30:33;20.60;99.90
74513;DHT22;62992;52.052;8.550;2022-10-22T08:33:02;20.40;99.90
74513;DHT22;62992;52.052;8.550;2022-10-22T08:35:28;21.10;99.90
74513;DHT22;62992;52.052;8.550;2022-10-22T08:37:53;21.30;99.90
74513;DHT22;62992;52.052;8.550;2022-10-22T08:40:25;20.20;99.90
74513;DHT22;62992;52.052;8.550;2022-10-22T08:43:14;19.70;99.90
74513;DHT22;62992;52.052;8.550;2022-10-22T08:45:55;20.20;99.90
74513;DHT22;62992;52.052;8.550;2022-10-22T08:48:48;19.60;99.90
74513;DHT22;62992;52.052;8.550;2022-10-22T08:51:20;20.10;99.90
74513;DHT22;62992;52.052;8.550;2022-10-22T08:56:27;20.10;99.90
74513;DHT22;62992;52.052;8.550;2022-10-22T08:59:09;19.70;99.90
74513;DHT22;62992;52.052;8.550;2022-10-22T09:01:41;20.30;99.90
74513;DHT22;62992;52.052;8.550;2022-10-22T09:06:57;20.40;99.90
74513;DHT22;62992;52.052;8.550;2022-10-22T09:09:26;20.50;99.90
74513;DHT22;62992;52.052;8.550;2022-10-22T09:11:56;20.30;99.90
74513;DHT22;62992;52.052;8.550;2022-10-22T09:14:48;20.30;99.90
74513;DHT22;62992;52.052;8.550;2022-10-22T09:18:01;20.70;99.90
74513;DHT22;62992;52.052;8.550;2022-10-22T09:21:01;22.50;99.90
74513;DHT22;62992;52.052;8.550;2022-10-22T09:24:02;20.00;99.90
74513;DHT22;62992;52.052;8.550;2022-10-22T09:26:47;19.90;99.90
74513;DHT22;62992;52.052;8.550;2022-10-22T09:29:33;20.20;99.90
74513;DHT22;62992;52.052;8.550;2022-10-22T09:32:25;20.30;99.90
74513;DHT22;62992;52.052;8.550;2022-10-22T09:35:12;19.40;99.90
74513;DHT22;62992;52.052;8.550;2022-10-22T09:37:56;19.90;99.90
74513;DHT22;62992;52.052;8.550;2022-10-22T09:40:49;20.20;99.90
74513;DHT22;62992;52.052;8.550;2022-10-22T09:43:35;20.30;99.90
74513;DHT22;62992;52.052;8.550;2022-10-22T09:46:21;21.10;99.90
74513;DHT22;62992;52.052;8.550;2022-10-22T09:49:10;21.00;99.90
74513;DHT22;62992;52.052;8.550;2022-10-22T09:51:56;20.60;99.90
74513;DHT22;62992;52.052;8.550;2022-10-22T09:54:41;20.90;99.90
74513;DHT22;62992;52.052;8.550;2022-10-22T09:57:28;20.80;99.90
74513;DHT22;62992;52.052;8.550;2022-10-22T10:00:17;20.70;99.90
74513;DHT22;62992;52.052;8.550;2022-10-22T10:03:02;20.30;99.90
74513;DHT22;62992;52.052;8.550;2022-10-22T10:05:48;19.90;99.90
74513;DHT22;62992;52.052;8.550;2022-10-22T10:08:32;20.30;99.90
74513;DHT22;62992;52.052;8.550;2022-10-22T10:17:36;18.90;99.90
74513;DHT22;62992;52.052;8.550;2022-10-22T10:23:40;18.20;99.90
74513;DHT22;62992;52.052;8.550;2022-10-22T10:33:16;17.90;99.90
74513;DHT22;62992;52.052;8.550;2022-10-22T10:36:08;19.10;99.90
74513;DHT22;62992;52.052;8.550;2022-10-22T10:39:05;19.30;99.90
74513;DHT22;62992;52.052;8.550;2022-10-22T10:42:04;18.60;99.90
74513;DHT22;62992;52.052;8.550;2022-10-22T10:45:18;18.40;99.90
74513;DHT22;62992;52.052;8.550;2022-10-22T10:51:19;18.30;99.90
74513;DHT22;62992;52.052;8.550;2022-10-22T10:54:20;19.30;99.90
74513;DHT22;62992;52.052;8.550;2022-10-22T10:57:21;19.70;99.90
74513;DHT22;62992;52.052;8.550;2022-10-22T11:00:17;18.90;99.90
74513;DHT22;62992;52.052;8.550;2022-10-22T11:06:06;18.80;99.90
74513;DHT22;62992;52.052;8.550;2022-10-22T11:11:50;18.10;99.90
74513;DHT22;62992;52.052;8.550;2022-10-22T11:21:16;17.30;99.90
74513;DHT22;62992;52.052;8.550;2022-10-22T11:30:13;17.10;99.90
74513;DHT22;62992;52.052;8.550;2022-10-22T11:33:01;17.00;99.90
74513;DHT22;62992;52.052;8.550;2022-10-22T11:35:47;16.90;99.90
74513;DHT22;62992;52.052;8.550;2022-10-22T11:38:32;17.00;99.90
74513;DHT22;62992;52.052;8.550;2022-10-22T11:41:23;17.30;99.90
74513;DHT22;62992;52.052;8.550;2022-10-22T11:44:21;17.80;99.90
74513;DHT22;62992;52.052;8.550;2022-10-22T11:47:17;17.90;99.90
74513;DHT22;62992;52.052;8.550;2022-10-22T11:50:19;18.10;99.90
74513;DHT22;62992;52.052;8.550;2022-10-22T11:58:56;18.30;99.90
74513;DHT22;62992;52.052;8.550;2022-10-22T12:01:47;17.90;99.90
74513;DHT22;62992;52.052;8.550;2022-10-22T12:04:41;17.90;99.90
74513;DHT22;62992;52.052;8.550;2022-10-22T12:07:33;17.80;99.90
74513;DHT22;62992;52.052;8.550;2022-10-22T12:10:24;17.90;99.90
74513;DHT22;62992;52.052;8.550;2022-10-22T12:13:21;18.10;99.90
74513;DHT22;62992;52.052;8.550;2022-10-22T12:16:10;17.90;99.90
74513;DHT22;62992;52.052;8.550;2022-10-22T12:24:55;17.30;99.90
74513;DHT22;62992;52.052;8.550;2022-10-22T12:27:42;17.20;99.90
74513;DHT22;62992;52.052;8.550;2022-10-22T12:30:31;17.10;99.90
74513;DHT22;62992;52.052;8.550;2022-10-22T12:33:20;17.10;99.90
74513;DHT22;62992;52.052;8.550;2022-10-22T12:36:05;17.10;99.90
74513;DHT22;62992;52.052;8.550;2022-10-22T12:38:49;17.10;99.90
74513;DHT22;62992;52.052;8.550;2022-10-22T12:41:35;17.20;99.90
74513;DHT22;62992;52.052;8.550;2022-10-22T12:44:19;17.10;99.90
74513;DHT22;62992;52.052;8.550;2022-10-22T12:47:05;17.10;99.90
74513;DHT22;62992;52.052;8.550;2022-10-22T12:49:50;17.00;99.90
74513;DHT22;62992;52.052;8.550;2022-10-22T12:52:34;17.20;99.90
74513;DHT22;62992;52.052;8.550;2022-10-22T12:55:21;17.60;99.90
74513;DHT22;62992;52.052;8.550;2022-10-22T12:58:16;17.70;99.90
74513;DHT22;62992;52.052;8.550;2022-10-22T13:01:00;17.80;99.90
74513;DHT22;62992;52.052;8.550;2022-10-22T13:03:48;17.70;99.90
74513;DHT22;62992;52.052;8.550;2022-10-22T13:06:35;17.70;99.90
74513;DHT22;62992;52.052;8.550;2022-10-22T13:09:23;17.50;99.90
74513;DHT22;62992;52.052;8.550;2022-10-22T13:12:09;17.60;99.90
74513;DHT22;62992;52.052;8.550;2022-10-22T13:21:00;17.60;99.90
74513;DHT22;62992;52.052;8.550;2022-10-22T13:23:58;17.60;99.90
74513;DHT22;62992;52.052;8.550;2022-10-22T13:26:42;17.40;99.90
74513;DHT22;62992;52.052;8.550;2022-10-22T13:29:32;17.30;99.90
74513;DHT22;62992;52.052;8.550;2022-10-22T13:32:32;17.20;99.90
74513;DHT22;62992;52.052;8.550;2022-10-22T13:35:20;17.10;99.90
74513;DHT22;62992;52.052;8.550;2022-10-22T13:38:17;16.90;99.90
74513;DHT22;62992;52.052;8.550;2022-10-22T13:41:01;16.90;99.90
74513;DHT22;62992;52.052;8.550;2022-10-22T13:43:47;16.90;99.90
74513;DHT22;62992;52.052;8.550;2022-10-22T13:46:31;16.90;99.90
74513;DHT22;62992;52.052;8.550;2022-10-22T13:49:19;16.90;99.90
74513;DHT22;62992;52.052;8.550;2022-10-22T13:52:03;16.80;99.90
74513;DHT22;62992;52.052;8.550;2022-10-22T13:54:47;16.70;99.90
74513;DHT22;62992;52.052;8.550;2022-10-22T13:57:31;16.70;99.90
74513;DHT22;62992;52.052;8.550;2022-10-22T14:00:20;16.60;99.90
74513;DHT22;62992;52.052;8.550;2022-10-22T14:03:05;16.60;99.90
74513;DHT22;62992;52.052;8.550;2022-10-22T14:05:52;16.50;99.90
74513;DHT22;62992;52.052;8.550;2022-10-22T14:08:37;16.50;99.90
74513;DHT22;62992;52.052;8.550;2022-10-22T14:11:22;16.30;99.90
74513;DHT22;62992;52.052;8.550;2022-10-22T14:14:06;16.20;99.90
74513;DHT22;62992;52.052;8.550;2022-10-22T14:16:52;16.10;99.90
74513;DHT22;62992;52.052;8.550;2022-10-22T14:19:36;16.10;99.90
74513;DHT22;62992;52.052;8.550;2022-10-22T14:22:22;16.10;99.90
74513;DHT22;62992;52.052;8.550;2022-10-22T14:25:12;16.10;99.90
74513;DHT22;62992;52.052;8.550;2022-10-22T14:27:57;16.10;99.90
74513;DHT22;62992;52.052;8.550;2022-10-22T14:30:41;16.20;99.90
74513;DHT22;62992;52.052;8.550;2022-10-22T14:33:31;16.20;99.90
74513;DHT22;62992;52.052;8.550;2022-10-22T14:36:16;16.20;99.90
74513;DHT22;62992;52.052;8.550;2022-10-22T14:39:01;16.10;99.90
74513;DHT22;62992;52.052;8.550;2022-10-22T14:41:45;16.00;99.90
74513;DHT22;62992;52.052;8.550;2022-10-22T14:44:30;15.90;99.90
74513;DHT22;62992;52.052;8.550;2022-10-22T14:47:14;15.80;99.90
74513;DHT22;62992;52.052;8.550;2022-10-22T14:49:58;15.70;99.90
74513;DHT22;62992;52.052;8.550;2022-10-22T14:52:44;15.70;99.90
74513;DHT22;62992;52.052;8.550;2022-10-22T14:55:29;15.70;99.90
74513;DHT22;62992;52.052;8.550;2022-10-22T14:58:13;15.70;99.90
74513;DHT22;62992;52.052;8.550;2022-10-22T15:01:01;15.60;99.90
74513;DHT22;62992;52.052;8.550;2022-10-22T15:03:45;15.50;99.90
74513;DHT22;62992;52.052;8.550;2022-10-22T15:06:29;15.50;99.90
74513;DHT22;62992;52.052;8.550;2022-10-22T15:09:13;15.50;99.90
74513;DHT22;62992;52.052;8.550;2022-10-22T15:11:57;15.50;99.90
74513;DHT22;62992;52.052;8.550;2022-10-22T15:14:41;15.60;99.90
74513;DHT22;62992;52.052;8.550;2022-10-22T15:17:25;15.60;99.90
74513;DHT22;62992;52.052;8.550;2022-10-22T15:20:09;15.70;99.90
74513;DHT22;62992;52.052;8.550;2022-10-22T15:22:53;15.60;99.90
74513;DHT22;62992;52.052;8.550;2022-10-22T15:25:37;15.60;99.90
74513;DHT22;62992;52.052;8.550;2022-10-22T15:28:25;15.60;99.90
74513;DHT22;62992;52.052;8.550;2022-10-22T15:31:12;15.70;99.90
74513;DHT22;62992;52.052;8.550;2022-10-22T15:33:57;15.70;99.90
74513;DHT22;62992;52.052;8.550;2022-10-22T15:36:41;15.70;99.90
74513;DHT22;62992;52.052;8.550;2022-10-22T15:39:26;15.70;99.90
74513;DHT22;62992;52.052;8.550;2022-10-22T15:42:11;15.70;99.90
74513;DHT22;62992;52.052;8.550;2022-10-22T15:44:58;15.80;99.90
74513;DHT22;62992;52.052;8.550;2022-10-22T15:47:46;15.80;99.90
74513;DHT22;62992;52.052;8.550;2022-10-22T15:50:31;15.80;99.90
74513;DHT22;62992;52.052;8.550;2022-10-22T15:53:15;15.70;99.90
74513;DHT22;62992;52.052;8.550;2022-10-22T15:55:59;15.70;99.90
74513;DHT22;62992;52.052;8.550;2022-10-22T15:58:44;15.70;99.90
74513;DHT22;62992;52.052;8.550;2022-10-22T16:01:28;15.70;99.90
74513;DHT22;62992;52.052;8.550;2022-10-22T16:04:13;15.60;99.90
74513;DHT22;62992;52.052;8.550;2022-10-22T16:06:57;15.60;99.90
74513;DHT22;62992;52.052;8.550;2022-10-22T16:09:42;15.50;99.90
74513;DHT22;62992;52.052;8.550;2022-10-22T16:12:26;15.40;99.90
74513;DHT22;62992;52.052;8.550;2022-10-22T16:15:10;15.30;99.90
74513;DHT22;62992;52.052;8.550;2022-10-22T16:17:54;15.30;99.90
74513;DHT22;62992;52.052;8.550;2022-10-22T16:20:39;15.30;99.90
74513;DHT22;62992;52.052;8.550;2022-10-22T16:23:23;15.20;99.90
74513;DHT22;62992;52.052;8.550;2022-10-22T16:26:08;15.20;99.90
74513;DHT22;62992;52.052;8.550;2022-10-22T16:28:52;15.20;99.90
74513;DHT22;62992;52.052;8.550;2022-10-22T16:31:36;15.20;99.90
74513;DHT22;62992;52.052;8.550;2022-10-22T16:34:21;15.10;99.90
74513;DHT22;62992;52.052;8.550;2022-10-22T16:37:05;15.00;99.90
74513;DHT22;62992;52.052;8.550;2022-10-22T16:39:52;15.00;99.90
74513;DHT22;62992;52.052;8.550;2022-10-22T16:42:36;15.00;99.90
74513;DHT22;62992;52.052;8.550;2022-10-22T16:45:20;14.90;99.90
74513;DHT22;62992;52.052;8.550;2022-10-22T16:48:04;14.90;99.90
74513;DHT22;62992;52.052;8.550;2022-10-22T16:50:48;14.90;99.90
74513;DHT22;62992;52.052;8.550;2022-10-22T16:53:32;14.80;99.90
74513;DHT22;62992;52.052;8.550;2022-10-22T16:56:17;14.80;99.90
74513;DHT22;62992;52.052;8.550;2022-10-22T16:59:02;14.80;99.90
74513;DHT22;62992;52.052;8.550;2022-10-22T17:01:46;14.60;99.90
74513;DHT22;62992;52.052;8.550;2022-10-22T17:04:30;14.60;99.90
74513;DHT22;62992;52.052;8.550;2022-10-22T17:07:14;14.60;99.90
74513;DHT22;62992;52.052;8.550;2022-10-22T17:09:58;14.60;99.90
74513;DHT22;62992;52.052;8.550;2022-10-22T17:12:45;14.50;99.90
74513;DHT22;62992;52.052;8.550;2022-10-22T17:15:29;14.40;99.90
74513;DHT22;62992;52.052;8.550;2022-10-22T17:18:14;14.40;99.90
74513;DHT22;62992;52.052;8.550;2022-10-22T17:20:58;14.30;99.90
74513;DHT22;62992;52.052;8.550;2022-10-22T17:23:43;14.40;99.90
74513;DHT22;62992;52.052;8.550;2022-10-22T17:26:27;14.40;99.90
74513;DHT22;62992;52.052;8.550;2022-10-22T17:29:13;14.30;99.90
74513;DHT22;62992;52.052;8.550;2022-10-22T17:31:57;14.30;99.90
74513;DHT22;62992;52.052;8.550;2022-10-22T17:34:41;14.30;99.90
74513;DHT22;62992;52.052;8.550;2022-10-22T17:37:25;14.30;99.90
74513;DHT22;62992;52.052;8.550;2022-10-22T17:40:10;14.20;99.90
74513;DHT22;62992;52.052;8.550;2022-10-22T17:42:54;14.30;99.90
74513;DHT22;62992;52.052;8.550;2022-10-22T17:45:40;14.20;99.90
74513;DHT22;62992;52.052;8.550;2022-10-22T17:48:24;14.10;99.90
74513;DHT22;62992;52.052;8.550;2022-10-22T17:51:10;14.10;99.90
74513;DHT22;62992;52.052;8.550;2022-10-22T17:53:55;14.00;99.90
74513;DHT22;62992;52.052;8.550;2022-10-22T17:56:39;14.10;99.90